Stratmoor Hills, Colorado
Current Conditions -  °F | °C
As of 9:56 PM on Friday 24 Oct 2014 (Local Time) from KCWN Reporting Station
Clear Clear  
Wind Chill: 67°   Ceiling: Unl
Heat Index: 67°   Visibility: 10mi
Dew Point: 16°   Wind: 3mph
Humidity: 14%   Direction: NA
Pressure: 30.31"   Gusts: NA
Location:  38.7684°N, 104.872°W
Report Text: KCWN 250356Z AUTO VRB03KT 10SM CLR 20/M09 A3031 RMK AO2 SLP175 T01951089
Loading
Personal Weather Stations






























Interactive Weather Map
Tropical Storm Tracking
New forecast layout! Learn more

10-Day Weather Forecast

Advertisements
Track Severe Weather on mobile